sensor_id;sensor_type;location;lat;lon;timestamp;pressure;altitude;pressure_sealevel;temperature;humidity
3434;BME280;1730;41.932;25.548;2023-03-14T00:00:23;99572.53;;;2.66;100.00
3434;BME280;1730;41.932;25.548;2023-03-14T00:02:52;99579.16;;;2.59;100.00
3434;BME280;1730;41.932;25.548;2023-03-14T00:05:18;99575.13;;;2.54;100.00
3434;BME280;1730;41.932;25.548;2023-03-14T00:07:44;99567.91;;;2.42;100.00
3434;BME280;1730;41.932;25.548;2023-03-14T00:10:12;99556.03;;;2.33;100.00
3434;BME280;1730;41.932;25.548;2023-03-14T00:12:39;99489.00;;;2.14;100.00
3434;BME280;1730;41.932;25.548;2023-03-14T00:15:07;99487.28;;;2.27;100.00
3434;BME280;1730;41.932;25.548;2023-03-14T00:17:34;99540.47;;;2.68;100.00
3434;BME280;1730;41.932;25.548;2023-03-14T00:20:01;99514.09;;;2.51;100.00
3434;BME280;1730;41.932;25.548;2023-03-14T00:22:30;99538.81;;;2.53;100.00
3434;BME280;1730;41.932;25.548;2023-03-14T00:24:55;99546.22;;;2.48;100.00
3434;BME280;1730;41.932;25.548;2023-03-14T00:27:21;99552.13;;;2.53;100.00
3434;BME280;1730;41.932;25.548;2023-03-14T00:29:46;99500.88;;;1.80;100.00
3434;BME280;1730;41.932;25.548;2023-03-14T00:32:12;99558.97;;;2.28;100.00
3434;BME280;1730;41.932;25.548;2023-03-14T00:34:37;99551.41;;;2.22;100.00
3434;BME280;1730;41.932;25.548;2023-03-14T00:37:03;99496.72;;;2.04;100.00
3434;BME280;1730;41.932;25.548;2023-03-14T00:39:29;99553.91;;;2.52;100.00
3434;BME280;1730;41.932;25.548;2023-03-14T00:41:54;99549.47;;;2.39;100.00
3434;BME280;1730;41.932;25.548;2023-03-14T00:44:20;99546.78;;;2.53;100.00
3434;BME280;1730;41.932;25.548;2023-03-14T00:46:45;99529.34;;;2.76;100.00
3434;BME280;1730;41.932;25.548;2023-03-14T00:49:11;99532.03;;;2.61;100.00
3434;BME280;1730;41.932;25.548;2023-03-14T00:51:36;99530.66;;;2.68;100.00
3434;BME280;1730;41.932;25.548;2023-03-14T00:54:02;99525.56;;;2.65;100.00
3434;BME280;1730;41.932;25.548;2023-03-14T00:56:27;99387.75;;;1.76;100.00
3434;BME280;1730;41.932;25.548;2023-03-14T00:58:54;99530.81;;;2.53;100.00
3434;BME280;1730;41.932;25.548;2023-03-14T01:01:20;99515.53;;;2.01;100.00
3434;BME280;1730;41.932;25.548;2023-03-14T01:03:46;99522.91;;;1.82;100.00
3434;BME280;1730;41.932;25.548;2023-03-14T01:06:15;99493.78;;;1.95;100.00
3434;BME280;1730;41.932;25.548;2023-03-14T01:08:51;99517.91;;;1.92;100.00
3434;BME280;1730;41.932;25.548;2023-03-14T01:11:20;99508.22;;;1.62;100.00
3434;BME280;1730;41.932;25.548;2023-03-14T01:13:45;99512.38;;;1.80;100.00
3434;BME280;1730;41.932;25.548;2023-03-14T01:16:12;99513.72;;;1.88;100.00
3434;BME280;1730;41.932;25.548;2023-03-14T01:18:39;99486.56;;;1.68;100.00
3434;BME280;1730;41.932;25.548;2023-03-14T01:21:11;99510.28;;;1.71;100.00
3434;BME280;1730;41.932;25.548;2023-03-14T01:23:37;99510.38;;;1.56;100.00
3434;BME280;1730;41.932;25.548;2023-03-14T01:26:03;99474.78;;;1.44;100.00
3434;BME280;1730;41.932;25.548;2023-03-14T01:28:28;99509.44;;;1.57;100.00
3434;BME280;1730;41.932;25.548;2023-03-14T01:30:55;99317.16;;;0.74;100.00
3434;BME280;1730;41.932;25.548;2023-03-14T01:33:21;99446.59;;;1.42;100.00
3434;BME280;1730;41.932;25.548;2023-03-14T01:35:49;99507.44;;;1.60;100.00
3434;BME280;1730;41.932;25.548;2023-03-14T01:38:15;99495.00;;;1.47;100.00
3434;BME280;1730;41.932;25.548;2023-03-14T01:40:44;99499.56;;;1.15;100.00
3434;BME280;1730;41.932;25.548;2023-03-14T01:43:19;99492.22;;;1.34;100.00
3434;BME280;1730;41.932;25.548;2023-03-14T01:51:11;99427.22;;;0.67;100.00
3434;BME280;1730;41.932;25.548;2023-03-14T01:53:39;99269.81;;;-0.21;100.00
3434;BME280;1730;41.932;25.548;2023-03-14T01:56:09;99521.63;;;1.01;100.00
3434;BME280;1730;41.932;25.548;2023-03-14T01:58:37;99487.28;;;1.14;100.00
3434;BME280;1730;41.932;25.548;2023-03-14T02:01:03;99484.69;;;1.12;100.00
3434;BME280;1730;41.932;25.548;2023-03-14T02:03:30;99481.25;;;1.10;100.00
3434;BME280;1730;41.932;25.548;2023-03-14T02:06:03;99480.13;;;1.00;100.00
3434;BME280;1730;41.932;25.548;2023-03-14T02:08:30;99477.06;;;0.92;100.00
3434;BME280;1730;41.932;25.548;2023-03-14T02:10:56;99477.16;;;0.90;100.00
3434;BME280;1730;41.932;25.548;2023-03-14T02:13:23;99301.38;;;-0.32;100.00
3434;BME280;1730;41.932;25.548;2023-03-14T02:15:50;99481.81;;;1.01;100.00
3434;BME280;1730;41.932;25.548;2023-03-14T02:18:16;99492.00;;;1.09;100.00
3434;BME280;1730;41.932;25.548;2023-03-14T02:20:51;99457.63;;;0.92;100.00
3434;BME280;1730;41.932;25.548;2023-03-14T02:23:45;99500.19;;;0.90;100.00
3434;BME280;1730;41.932;25.548;2023-03-14T02:26:31;99493.41;;;1.00;100.00
3434;BME280;1730;41.932;25.548;2023-03-14T02:28:58;99493.97;;;1.05;100.00
3434;BME280;1730;41.932;25.548;2023-03-14T02:31:24;99430.06;;;0.64;100.00
3434;BME280;1730;41.932;25.548;2023-03-14T02:33:50;99487.03;;;1.03;100.00
3434;BME280;1730;41.932;25.548;2023-03-14T02:36:17;99488.34;;;0.96;100.00
3434;BME280;1730;41.932;25.548;2023-03-14T02:41:14;99492.41;;;1.01;100.00
3434;BME280;1730;41.932;25.548;2023-03-14T02:43:40;99489.22;;;0.80;100.00
3434;BME280;1730;41.932;25.548;2023-03-14T02:46:06;99486.84;;;1.06;100.00
3434;BME280;1730;41.932;25.548;2023-03-14T02:48:43;99488.34;;;0.96;100.00
3434;BME280;1730;41.932;25.548;2023-03-14T02:51:11;99489.63;;;0.88;100.00
3434;BME280;1730;41.932;25.548;2023-03-14T02:53:38;99481.13;;;0.68;100.00
3434;BME280;1730;41.932;25.548;2023-03-14T02:56:04;99490.22;;;0.64;100.00
3434;BME280;1730;41.932;25.548;2023-03-14T02:58:30;99464.59;;;0.33;100.00
3434;BME280;1730;41.932;25.548;2023-03-14T03:00:57;99492.91;;;0.48;100.00
3434;BME280;1730;41.932;25.548;2023-03-14T03:03:22;99485.84;;;0.63;100.00
3434;BME280;1730;41.932;25.548;2023-03-14T03:05:53;99484.50;;;0.40;100.00
3434;BME280;1730;41.932;25.548;2023-03-14T03:08:20;99337.37;;;-0.44;100.00
3434;BME280;1730;41.932;25.548;2023-03-14T03:10:47;99483.94;;;0.35;100.00
3434;BME280;1730;41.932;25.548;2023-03-14T03:13:12;99484.84;;;0.50;100.00
3434;BME280;1730;41.932;25.548;2023-03-14T03:15:38;99484.59;;;0.38;100.00
3434;BME280;1730;41.932;25.548;2023-03-14T03:18:04;99439.78;;;0.18;100.00
3434;BME280;1730;41.932;25.548;2023-03-14T03:20:29;99481.09;;;0.38;100.00
3434;BME280;1730;41.932;25.548;2023-03-14T03:22:55;99485.97;;;0.30;100.00
3434;BME280;1730;41.932;25.548;2023-03-14T03:25:20;99485.88;;;0.31;100.00
3434;BME280;1730;41.932;25.548;2023-03-14T03:27:46;99478.88;;;0.30;100.00
3434;BME280;1730;41.932;25.548;2023-03-14T03:30:11;99471.72;;;0.62;100.00
3434;BME280;1730;41.932;25.548;2023-03-14T03:32:37;99415.28;;;-0.01;100.00
3434;BME280;1730;41.932;25.548;2023-03-14T03:35:04;99480.06;;;0.40;100.00
3434;BME280;1730;41.932;25.548;2023-03-14T03:37:31;99470.81;;;0.48;100.00
3434;BME280;1730;41.932;25.548;2023-03-14T03:39:56;99446.63;;;0.38;100.00
3434;BME280;1730;41.932;25.548;2023-03-14T03:42:22;99478.88;;;0.15;100.00
3434;BME280;1730;41.932;25.548;2023-03-14T03:44:47;99475.19;;;0.33;100.00
3434;BME280;1730;41.932;25.548;2023-03-14T03:47:13;99482.81;;;0.39;100.00
3434;BME280;1730;41.932;25.548;2023-03-14T03:49:39;99490.31;;;0.31;100.00
3434;BME280;1730;41.932;25.548;2023-03-14T03:52:04;99488.00;;;0.40;100.00
3434;BME280;1730;41.932;25.548;2023-03-14T03:54:29;99490.84;;;0.37;100.00
3434;BME280;1730;41.932;25.548;2023-03-14T03:56:55;99493.16;;;0.28;100.00
3434;BME280;1730;41.932;25.548;2023-03-14T03:59:21;99487.41;;;0.35;100.00
3434;BME280;1730;41.932;25.548;2023-03-14T04:01:46;99480.34;;;0.20;100.00
3434;BME280;1730;41.932;25.548;2023-03-14T04:04:13;99476.53;;;0.40;100.00
3434;BME280;1730;41.932;25.548;2023-03-14T04:06:39;99475.09;;;0.50;100.00
3434;BME280;1730;41.932;25.548;2023-03-14T04:09:05;99496.47;;;0.31;100.00
3434;BME280;1730;41.932;25.548;2023-03-14T04:11:31;99487.69;;;0.15;100.00
3434;BME280;1730;41.932;25.548;2023-03-14T04:13:56;99483.22;;;0.31;100.00
3434;BME280;1730;41.932;25.548;2023-03-14T04:16:24;99492.22;;;0.29;100.00
3434;BME280;1730;41.932;25.548;2023-03-14T04:18:50;99486.66;;;0.18;100.00
3434;BME280;1730;41.932;25.548;2023-03-14T04:21:16;99487.25;;;0.23;100.00
3434;BME280;1730;41.932;25.548;2023-03-14T04:23:42;99481.97;;;0.38;100.00
3434;BME280;1730;41.932;25.548;2023-03-14T04:26:08;99490.34;;;-0.01;100.00
3434;BME280;1730;41.932;25.548;2023-03-14T04:28:33;99496.16;;;0.22;100.00
3434;BME280;1730;41.932;25.548;2023-03-14T04:31:08;99468.97;;;0.03;100.00
3434;BME280;1730;41.932;25.548;2023-03-14T04:33:34;99496.31;;;0.19;100.00
3434;BME280;1730;41.932;25.548;2023-03-14T04:36:01;99500.88;;;0.17;100.00
3434;BME280;1730;41.932;25.548;2023-03-14T04:38:27;99493.66;;;0.03;100.00
3434;BME280;1730;41.932;25.548;2023-03-14T04:40:52;99495.78;;;-0.19;100.00
3434;BME280;1730;41.932;25.548;2023-03-14T04:43:18;99495.84;;;-0.21;100.00
3434;BME280;1730;41.932;25.548;2023-03-14T04:45:44;99496.94;;;-0.40;100.00
3434;BME280;1730;41.932;25.548;2023-03-14T04:48:09;99495.38;;;0.20;100.00
3434;BME280;1730;41.932;25.548;2023-03-14T04:50:35;99484.75;;;0.35;100.00
3434;BME280;1730;41.932;25.548;2023-03-14T04:53:01;99485.03;;;0.15;100.00
3434;BME280;1730;41.932;25.548;2023-03-14T04:55:26;99455.69;;;0.34;100.00
3434;BME280;1730;41.932;25.548;2023-03-14T04:57:52;99471.31;;;0.84;100.00
3434;BME280;1730;41.932;25.548;2023-03-14T05:00:17;99462.13;;;1.05;100.00
3434;BME280;1730;41.932;25.548;2023-03-14T05:02:43;99458.66;;;1.47;100.00
3434;BME280;1730;41.932;25.548;2023-03-14T05:05:09;99430.37;;;1.74;100.00
3434;BME280;1730;41.932;25.548;2023-03-14T05:07:35;99456.38;;;1.84;100.00
3434;BME280;1730;41.932;25.548;2023-03-14T05:10:00;99466.78;;;2.15;100.00
3434;BME280;1730;41.932;25.548;2023-03-14T05:12:26;99456.69;;;1.79;100.00
3434;BME280;1730;41.932;25.548;2023-03-14T05:14:51;99463.41;;;2.25;100.00
3434;BME280;1730;41.932;25.548;2023-03-14T05:17:17;99456.81;;;2.72;100.00
3434;BME280;1730;41.932;25.548;2023-03-14T05:19:44;99449.88;;;3.22;100.00
3434;BME280;1730;41.932;25.548;2023-03-14T05:22:10;99446.47;;;3.57;100.00
3434;BME280;1730;41.932;25.548;2023-03-14T05:24:35;99449.34;;;3.80;100.00
3434;BME280;1730;41.932;25.548;2023-03-14T05:27:01;99436.75;;;4.18;100.00
3434;BME280;1730;41.932;25.548;2023-03-14T05:29:27;99443.06;;;3.68;100.00
3434;BME280;1730;41.932;25.548;2023-03-14T05:31:52;99435.78;;;4.56;100.00
3434;BME280;1730;41.932;25.548;2023-03-14T05:34:18;99435.53;;;4.82;100.00
3434;BME280;1730;41.932;25.548;2023-03-14T05:36:43;99432.28;;;4.66;100.00
3434;BME280;1730;41.932;25.548;2023-03-14T05:39:09;99409.03;;;4.79;100.00
3434;BME280;1730;41.932;25.548;2023-03-14T05:41:34;99438.56;;;4.78;100.00
3434;BME280;1730;41.932;25.548;2023-03-14T05:44:01;99430.34;;;4.92;100.00
3434;BME280;1730;41.932;25.548;2023-03-14T05:46:26;99430.13;;;5.06;100.00
3434;BME280;1730;41.932;25.548;2023-03-14T05:48:51;99434.91;;;4.79;100.00
3434;BME280;1730;41.932;25.548;2023-03-14T05:51:17;99429.13;;;5.53;100.00
3434;BME280;1730;41.932;25.548;2023-03-14T05:53:43;99375.66;;;5.64;100.00
3434;BME280;1730;41.932;25.548;2023-03-14T05:56:08;99423.69;;;5.77;100.00
3434;BME280;1730;41.932;25.548;2023-03-14T05:58:34;99418.25;;;5.89;100.00
3434;BME280;1730;41.932;25.548;2023-03-14T06:01:04;99415.66;;;5.77;100.00
3434;BME280;1730;41.932;25.548;2023-03-14T06:03:31;99415.81;;;5.86;100.00
3434;BME280;1730;41.932;25.548;2023-03-14T06:05:57;99412.38;;;6.18;100.00
3434;BME280;1730;41.932;25.548;2023-03-14T06:08:22;99414.91;;;6.30;98.97
3434;BME280;1730;41.932;25.548;2023-03-14T06:10:48;99392.94;;;6.05;100.00
3434;BME280;1730;41.932;25.548;2023-03-14T06:13:14;99405.44;;;6.15;100.00
3434;BME280;1730;41.932;25.548;2023-03-14T06:15:41;99183.22;;;4.97;100.00
3434;BME280;1730;41.932;25.548;2023-03-14T06:18:07;99405.06;;;6.20;100.00
3434;BME280;1730;41.932;25.548;2023-03-14T06:20:33;99413.56;;;6.25;100.00
3434;BME280;1730;41.932;25.548;2023-03-14T06:23:00;99408.59;;;6.63;100.00
3434;BME280;1730;41.932;25.548;2023-03-14T06:25:25;99410.09;;;6.45;100.00
3434;BME280;1730;41.932;25.548;2023-03-14T06:27:51;99419.25;;;6.54;100.00
3434;BME280;1730;41.932;25.548;2023-03-14T06:30:17;99353.53;;;5.96;100.00
3434;BME280;1730;41.932;25.548;2023-03-14T06:32:42;99410.38;;;6.74;100.00
3434;BME280;1730;41.932;25.548;2023-03-14T06:35:08;99411.28;;;6.20;100.00
3434;BME280;1730;41.932;25.548;2023-03-14T06:37:33;99411.94;;;6.76;100.00
3434;BME280;1730;41.932;25.548;2023-03-14T06:39:59;99369.13;;;6.45;100.00
3434;BME280;1730;41.932;25.548;2023-03-14T06:42:25;99405.41;;;6.69;100.00
3434;BME280;1730;41.932;25.548;2023-03-14T06:44:50;99419.44;;;6.94;100.00
3434;BME280;1730;41.932;25.548;2023-03-14T06:47:16;99418.84;;;6.90;100.00
3434;BME280;1730;41.932;25.548;2023-03-14T06:49:41;99414.91;;;7.56;100.00
3434;BME280;1730;41.932;25.548;2023-03-14T06:52:07;99401.59;;;7.76;100.00
3434;BME280;1730;41.932;25.548;2023-03-14T06:54:32;99405.78;;;7.59;100.00
3434;BME280;1730;41.932;25.548;2023-03-14T06:56:58;99408.75;;;7.14;100.00
3434;BME280;1730;41.932;25.548;2023-03-14T06:59:24;99415.34;;;7.31;100.00
3434;BME280;1730;41.932;25.548;2023-03-14T07:01:50;99411.94;;;7.50;100.00
3434;BME280;1730;41.932;25.548;2023-03-14T07:04:16;99418.19;;;7.90;100.00
3434;BME280;1730;41.932;25.548;2023-03-14T07:06:42;99414.78;;;7.88;100.00
3434;BME280;1730;41.932;25.548;2023-03-14T07:09:12;99405.06;;;7.97;100.00
3434;BME280;1730;41.932;25.548;2023-03-14T07:11:38;99303.22;;;7.25;100.00
3434;BME280;1730;41.932;25.548;2023-03-14T07:14:04;99424.47;;;8.50;100.00
3434;BME280;1730;41.932;25.548;2023-03-14T07:16:29;99381.06;;;8.74;97.27
3434;BME280;1730;41.932;25.548;2023-03-14T07:19:01;99400.47;;;8.77;94.23
3434;BME280;1730;41.932;25.548;2023-03-14T07:21:27;99396.78;;;8.88;89.90
3434;BME280;1730;41.932;25.548;2023-03-14T07:23:52;99403.03;;;8.20;95.65
3434;BME280;1730;41.932;25.548;2023-03-14T07:26:18;99395.75;;;8.41;91.58
3434;BME280;1730;41.932;25.548;2023-03-14T07:28:43;99398.59;;;8.49;91.38
3434;BME280;1730;41.932;25.548;2023-03-14T07:31:09;99391.50;;;8.38;92.08
3434;BME280;1730;41.932;25.548;2023-03-14T07:33:35;99398.94;;;8.15;92.79
3434;BME280;1730;41.932;25.548;2023-03-14T07:36:00;99390.34;;;7.91;95.14
3434;BME280;1730;41.932;25.548;2023-03-14T07:38:26;99282.94;;;7.72;91.00
3434;BME280;1730;41.932;25.548;2023-03-14T07:40:59;99385.19;;;8.58;86.46
3434;BME280;1730;41.932;25.548;2023-03-14T07:43:25;99391.34;;;8.30;86.42
3434;BME280;1730;41.932;25.548;2023-03-14T07:45:51;99338.16;;;8.24;85.16
3434;BME280;1730;41.932;25.548;2023-03-14T07:48:22;99385.38;;;8.27;91.23
3434;BME280;1730;41.932;25.548;2023-03-14T07:50:52;99376.53;;;8.84;90.60
3434;BME280;1730;41.932;25.548;2023-03-14T07:53:18;99369.75;;;8.89;87.66
3434;BME280;1730;41.932;25.548;2023-03-14T07:55:46;99220.22;;;7.73;85.23
3434;BME280;1730;41.932;25.548;2023-03-14T07:58:12;99372.03;;;8.75;82.78
3434;BME280;1730;41.932;25.548;2023-03-14T08:00:37;99372.31;;;8.72;84.57
3434;BME280;1730;41.932;25.548;2023-03-14T08:03:03;99367.22;;;8.59;84.74
3434;BME280;1730;41.932;25.548;2023-03-14T08:05:30;99369.28;;;9.13;82.94
3434;BME280;1730;41.932;25.548;2023-03-14T08:07:56;99339.38;;;9.35;81.92
3434;BME280;1730;41.932;25.548;2023-03-14T08:10:22;99360.09;;;9.62;79.44
3434;BME280;1730;41.932;25.548;2023-03-14T08:12:54;99359.53;;;9.68;75.33
3434;BME280;1730;41.932;25.548;2023-03-14T08:15:26;99358.03;;;9.46;70.01
3434;BME280;1730;41.932;25.548;2023-03-14T08:17:52;99350.19;;;9.63;65.64
3434;BME280;1730;41.932;25.548;2023-03-14T08:20:25;99251.97;;;9.12;67.71
3434;BME280;1730;41.932;25.548;2023-03-14T08:22:51;99346.91;;;9.96;67.33
3434;BME280;1730;41.932;25.548;2023-03-14T08:25:17;99342.81;;;9.65;66.36
3434;BME280;1730;41.932;25.548;2023-03-14T08:27:44;99335.41;;;10.31;65.58
3434;BME280;1730;41.932;25.548;2023-03-14T08:30:13;99332.56;;;10.50;65.19
3434;BME280;1730;41.932;25.548;2023-03-14T08:32:39;99331.91;;;11.09;64.34
3434;BME280;1730;41.932;25.548;2023-03-14T08:35:06;99324.34;;;11.13;62.39
3434;BME280;1730;41.932;25.548;2023-03-14T08:37:33;99321.63;;;10.87;63.39
3434;BME280;1730;41.932;25.548;2023-03-14T08:39:59;99319.62;;;11.15;62.51
3434;BME280;1730;41.932;25.548;2023-03-14T08:42:25;99311.94;;;11.28;61.58
3434;BME280;1730;41.932;25.548;2023-03-14T08:44:51;99306.97;;;11.15;63.45
3434;BME280;1730;41.932;25.548;2023-03-14T08:47:17;99257.62;;;11.23;61.77
3434;BME280;1730;41.932;25.548;2023-03-14T08:49:42;99309.31;;;10.93;62.12
3434;BME280;1730;41.932;25.548;2023-03-14T08:52:09;99312.16;;;11.35;61.59
3434;BME280;1730;41.932;25.548;2023-03-14T08:54:34;99262.75;;;10.82;58.73
3434;BME280;1730;41.932;25.548;2023-03-14T08:57:00;99303.31;;;11.24;56.35
3434;BME280;1730;41.932;25.548;2023-03-14T08:59:27;99299.91;;;11.14;55.17
3434;BME280;1730;41.932;25.548;2023-03-14T09:01:52;99295.28;;;11.07;55.91
3434;BME280;1730;41.932;25.548;2023-03-14T09:04:20;99301.09;;;11.20;55.23
3434;BME280;1730;41.932;25.548;2023-03-14T09:06:46;99168.63;;;10.79;53.89
3434;BME280;1730;41.932;25.548;2023-03-14T09:09:12;99290.63;;;11.43;52.83
3434;BME280;1730;41.932;25.548;2023-03-14T09:11:42;99280.69;;;11.85;52.19
3434;BME280;1730;41.932;25.548;2023-03-14T09:14:07;99285.00;;;12.12;50.41
3434;BME280;1730;41.932;25.548;2023-03-14T09:16:33;99280.22;;;11.90;50.05
3434;BME280;1730;41.932;25.548;2023-03-14T09:18:59;99169.03;;;11.68;49.35
3434;BME280;1730;41.932;25.548;2023-03-14T09:21:27;98889.63;;;10.08;48.57
3434;BME280;1730;41.932;25.548;2023-03-14T09:23:53;99265.09;;;12.29;47.53
3434;BME280;1730;41.932;25.548;2023-03-14T09:26:21;99260.94;;;12.67;46.87
3434;BME280;1730;41.932;25.548;2023-03-14T09:28:46;99268.34;;;12.97;46.57
3434;BME280;1730;41.932;25.548;2023-03-14T09:31:12;99256.31;;;12.11;47.17
3434;BME280;1730;41.932;25.548;2023-03-14T09:33:39;99255.19;;;12.70;46.27
3434;BME280;1730;41.932;25.548;2023-03-14T09:36:05;99254.50;;;12.52;46.95
3434;BME280;1730;41.932;25.548;2023-03-14T09:38:31;99242.16;;;12.57;46.89
3434;BME280;1730;41.932;25.548;2023-03-14T09:41:00;99242.47;;;13.03;45.99
3434;BME280;1730;41.932;25.548;2023-03-14T09:43:29;99233.63;;;13.25;45.53
3434;BME280;1730;41.932;25.548;2023-03-14T09:45:57;99234.28;;;13.35;44.88
3434;BME280;1730;41.932;25.548;2023-03-14T09:48:30;99223.75;;;13.48;42.66
3434;BME280;1730;41.932;25.548;2023-03-14T09:50:58;99184.72;;;13.27;41.60
3434;BME280;1730;41.932;25.548;2023-03-14T09:53:28;99214.69;;;13.09;42.13
3434;BME280;1730;41.932;25.548;2023-03-14T09:55:57;99217.78;;;12.98;43.54
3434;BME280;1730;41.932;25.548;2023-03-14T09:58:24;99213.06;;;12.84;43.30
3434;BME280;1730;41.932;25.548;2023-03-14T10:00:55;99214.22;;;12.81;42.56
3434;BME280;1730;41.932;25.548;2023-03-14T10:03:35;99183.44;;;12.82;42.02
3434;BME280;1730;41.932;25.548;2023-03-14T10:06:00;99195.34;;;12.41;42.25
3434;BME280;1730;41.932;25.548;2023-03-14T10:08:26;99193.56;;;13.21;41.57
3434;BME280;1730;41.932;25.548;2023-03-14T10:10:53;99191.34;;;13.08;39.97
3434;BME280;1730;41.932;25.548;2023-03-14T10:13:25;99181.56;;;12.99;39.30
3434;BME280;1730;41.932;25.548;2023-03-14T10:15:59;99183.81;;;12.79;39.59
3434;BME280;1730;41.932;25.548;2023-03-14T10:18:25;99181.53;;;13.62;39.16
3434;BME280;1730;41.932;25.548;2023-03-14T10:23:33;99172.25;;;14.10;38.37
3434;BME280;1730;41.932;25.548;2023-03-14T10:29:08;99179.09;;;13.75;40.38
3434;BME280;1730;41.932;25.548;2023-03-14T10:32:05;99156.13;;;13.63;41.86
3434;BME280;1730;41.932;25.548;2023-03-14T10:34:38;99156.25;;;13.70;42.10
3434;BME280;1730;41.932;25.548;2023-03-14T10:37:07;99142.44;;;14.10;41.24
3434;BME280;1730;41.932;25.548;2023-03-14T10:39:49;99145.81;;;14.12;41.63
3434;BME280;1730;41.932;25.548;2023-03-14T10:42:28;99139.47;;;14.42;40.86
3434;BME280;1730;41.932;25.548;2023-03-14T10:45:00;99129.75;;;14.48;40.53
3434;BME280;1730;41.932;25.548;2023-03-14T10:47:27;99104.84;;;13.84;41.47
3434;BME280;1730;41.932;25.548;2023-03-14T10:49:54;99103.50;;;14.03;41.98
3434;BME280;1730;41.932;25.548;2023-03-14T10:52:27;99098.41;;;14.08;42.02
3434;BME280;1730;41.932;25.548;2023-03-14T10:55:00;99093.59;;;14.33;41.74
3434;BME280;1730;41.932;25.548;2023-03-14T10:57:26;99089.34;;;14.38;41.84
3434;BME280;1730;41.932;25.548;2023-03-14T10:59:53;99027.44;;;14.19;42.86
3434;BME280;1730;41.932;25.548;2023-03-14T11:05:30;99072.53;;;14.35;43.12
3434;BME280;1730;41.932;25.548;2023-03-14T11:08:01;99051.84;;;14.86;42.69
3434;BME280;1730;41.932;25.548;2023-03-14T11:13:02;99039.28;;;14.85;42.77
3434;BME280;1730;41.932;25.548;2023-03-14T11:29:16;98957.84;;;14.85;43.52
3434;BME280;1730;41.932;25.548;2023-03-14T11:31:45;98891.66;;;14.86;43.02
3434;BME280;1730;41.932;25.548;2023-03-14T11:34:24;98978.09;;;14.68;44.14
3434;BME280;1730;41.932;25.548;2023-03-14T11:37:07;98976.72;;;14.93;44.18
3434;BME280;1730;41.932;25.548;2023-03-14T11:39:40;98971.41;;;15.57;43.66
3434;BME280;1730;41.932;25.548;2023-03-14T11:42:16;98960.31;;;16.07;42.86
3434;BME280;1730;41.932;25.548;2023-03-14T11:44:45;98947.66;;;15.44;42.65
3434;BME280;1730;41.932;25.548;2023-03-14T11:50:12;98945.81;;;15.30;41.99
3434;BME280;1730;41.932;25.548;2023-03-14T11:55:31;98929.84;;;15.63;38.23
3434;BME280;1730;41.932;25.548;2023-03-14T11:58:27;98919.81;;;15.42;39.46
3434;BME280;1730;41.932;25.548;2023-03-14T12:00:56;98916.72;;;15.66;39.74
3434;BME280;1730;41.932;25.548;2023-03-14T12:06:04;98906.88;;;15.93;38.97
3434;BME280;1730;41.932;25.548;2023-03-14T12:11:17;98893.41;;;15.85;39.12
3434;BME280;1730;41.932;25.548;2023-03-14T12:13:51;98901.22;;;15.67;39.65
3434;BME280;1730;41.932;25.548;2023-03-14T12:16:30;98894.78;;;16.02;38.81
3434;BME280;1730;41.932;25.548;2023-03-14T12:18:57;98879.09;;;16.39;37.66
3434;BME280;1730;41.932;25.548;2023-03-14T12:21:54;98873.66;;;16.32;37.71
3434;BME280;1730;41.932;25.548;2023-03-14T12:24:27;98866.56;;;16.44;36.75
3434;BME280;1730;41.932;25.548;2023-03-14T12:27:00;98868.50;;;16.16;33.47
3434;BME280;1730;41.932;25.548;2023-03-14T12:29:26;98869.88;;;15.71;33.23
3434;BME280;1730;41.932;25.548;2023-03-14T12:34:30;98858.13;;;15.92;32.81
3434;BME280;1730;41.932;25.548;2023-03-14T12:45:34;98841.00;;;16.32;30.18
3434;BME280;1730;41.932;25.548;2023-03-14T12:50:43;98823.28;;;16.08;30.93
3434;BME280;1730;41.932;25.548;2023-03-14T12:56:09;98826.13;;;16.35;31.87
3434;BME280;1730;41.932;25.548;2023-03-14T13:01:20;98799.69;;;16.83;31.58
3434;BME280;1730;41.932;25.548;2023-03-14T13:03:55;98791.50;;;16.70;32.07
3434;BME280;1730;41.932;25.548;2023-03-14T13:06:44;98784.13;;;16.57;32.04
3434;BME280;1730;41.932;25.548;2023-03-14T13:12:02;98780.00;;;16.81;31.08
3434;BME280;1730;41.932;25.548;2023-03-14T13:14:29;98768.06;;;16.82;31.28
3434;BME280;1730;41.932;25.548;2023-03-14T13:16:59;98780.22;;;16.79;31.37
3434;BME280;1730;41.932;25.548;2023-03-14T13:19:27;98763.38;;;16.56;31.82
3434;BME280;1730;41.932;25.548;2023-03-14T13:22:02;98760.09;;;16.67;32.33
3434;BME280;1730;41.932;25.548;2023-03-14T13:24:28;98755.41;;;16.48;32.76
3434;BME280;1730;41.932;25.548;2023-03-14T13:26:56;98695.03;;;16.11;33.40
3434;BME280;1730;41.932;25.548;2023-03-14T13:29:30;98740.31;;;16.32;33.69
3434;BME280;1730;41.932;25.548;2023-03-14T13:32:12;98735.16;;;16.63;32.99
3434;BME280;1730;41.932;25.548;2023-03-14T13:34:38;98702.25;;;16.45;32.15
3434;BME280;1730;41.932;25.548;2023-03-14T13:37:03;98737.16;;;16.35;32.62
3434;BME280;1730;41.932;25.548;2023-03-14T13:39:29;98728.19;;;16.54;32.55
3434;BME280;1730;41.932;25.548;2023-03-14T13:42:00;98710.22;;;16.60;32.21
3434;BME280;1730;41.932;25.548;2023-03-14T13:44:30;98717.16;;;16.76;32.15
3434;BME280;1730;41.932;25.548;2023-03-14T13:47:04;98706.69;;;17.05;32.49
3434;BME280;1730;41.932;25.548;2023-03-14T13:49:32;98586.44;;;16.43;31.95
3434;BME280;1730;41.932;25.548;2023-03-14T13:52:01;98706.03;;;17.17;31.80
3434;BME280;1730;41.932;25.548;2023-03-14T13:54:29;98679.44;;;16.59;31.29
3434;BME280;1730;41.932;25.548;2023-03-14T13:57:00;98695.38;;;16.89;30.34
3434;BME280;1730;41.932;25.548;2023-03-14T13:59:34;98693.69;;;17.01;30.86
3434;BME280;1730;41.932;25.548;2023-03-14T14:02:04;98684.69;;;16.87;30.80
3434;BME280;1730;41.932;25.548;2023-03-14T14:04:36;98681.31;;;17.18;30.84
3434;BME280;1730;41.932;25.548;2023-03-14T14:07:09;98679.22;;;17.07;31.18
3434;BME280;1730;41.932;25.548;2023-03-14T14:09:46;98668.13;;;17.15;31.30
3434;BME280;1730;41.932;25.548;2023-03-14T14:12:17;98664.38;;;16.96;30.92
3434;BME280;1730;41.932;25.548;2023-03-14T14:15:05;98664.38;;;16.77;30.49
3434;BME280;1730;41.932;25.548;2023-03-14T14:20:03;98652.19;;;17.19;30.23
3434;BME280;1730;41.932;25.548;2023-03-14T14:22:30;98645.94;;;16.92;29.52
3434;BME280;1730;41.932;25.548;2023-03-14T14:24:59;98649.50;;;16.86;29.81